sensor_id;sensor_type;location;lat;lon;timestamp;P1;durP1;ratioP1;P2;durP2;ratioP2
33138;SDS011;19501;50.948;5.316;2022-09-01T00:01:21;9.18;;;3.28;;
33138;SDS011;19501;50.948;5.316;2022-09-01T00:03:50;9.85;;;3.38;;
33138;SDS011;19501;50.948;5.316;2022-09-01T00:06:18;7.70;;;3.50;;
33138;SDS011;19501;50.948;5.316;2022-09-01T00:08:56;7.60;;;3.28;;
33138;SDS011;19501;50.948;5.316;2022-09-01T00:11:24;10.95;;;3.42;;
33138;SDS011;19501;50.948;5.316;2022-09-01T00:13:52;12.13;;;3.35;;
33138;SDS011;19501;50.948;5.316;2022-09-01T00:16:19;5.85;;;3.10;;
33138;SDS011;19501;50.948;5.316;2022-09-01T00:18:47;11.40;;;3.30;;
33138;SDS011;19501;50.948;5.316;2022-09-01T00:21:15;11.40;;;3.95;;
33138;SDS011;19501;50.948;5.316;2022-09-01T00:23:45;6.93;;;3.20;;
33138;SDS011;19501;50.948;5.316;2022-09-01T00:26:11;7.75;;;2.97;;
33138;SDS011;19501;50.948;5.316;2022-09-01T00:28:38;8.88;;;3.25;;
33138;SDS011;19501;50.948;5.316;2022-09-01T00:31:04;8.32;;;3.30;;
33138;SDS011;19501;50.948;5.316;2022-09-01T00:33:30;12.45;;;3.47;;
33138;SDS011;19501;50.948;5.316;2022-09-01T00:35:58;11.50;;;3.30;;
33138;SDS011;19501;50.948;5.316;2022-09-01T00:38:24;10.43;;;3.15;;
33138;SDS011;19501;50.948;5.316;2022-09-01T00:40:50;13.25;;;3.50;;
33138;SDS011;19501;50.948;5.316;2022-09-01T00:43:17;13.75;;;3.22;;
33138;SDS011;19501;50.948;5.316;2022-09-01T00:45:46;10.13;;;3.20;;
33138;SDS011;19501;50.948;5.316;2022-09-01T00:48:13;9.40;;;3.47;;
33138;SDS011;19501;50.948;5.316;2022-09-01T00:50:39;10.60;;;3.28;;
33138;SDS011;19501;50.948;5.316;2022-09-01T00:53:07;9.25;;;3.13;;
33138;SDS011;19501;50.948;5.316;2022-09-01T00:55:34;8.35;;;3.72;;
33138;SDS011;19501;50.948;5.316;2022-09-01T00:58:03;10.07;;;3.15;;
33138;SDS011;19501;50.948;5.316;2022-09-01T01:00:31;10.02;;;3.58;;
33138;SDS011;19501;50.948;5.316;2022-09-01T01:03:05;11.02;;;3.08;;
33138;SDS011;19501;50.948;5.316;2022-09-01T01:05:35;8.02;;;3.17;;
33138;SDS011;19501;50.948;5.316;2022-09-01T01:08:04;11.73;;;3.20;;
33138;SDS011;19501;50.948;5.316;2022-09-01T01:10:33;8.00;;;3.10;;
33138;SDS011;19501;50.948;5.316;2022-09-01T01:13:11;12.55;;;3.25;;
33138;SDS011;19501;50.948;5.316;2022-09-01T01:15:42;8.25;;;3.30;;
33138;SDS011;19501;50.948;5.316;2022-09-01T01:18:11;8.07;;;3.33;;
33138;SDS011;19501;50.948;5.316;2022-09-01T01:20:39;9.57;;;3.25;;
33138;SDS011;19501;50.948;5.316;2022-09-01T01:23:28;8.75;;;3.15;;
33138;SDS011;19501;50.948;5.316;2022-09-01T01:26:01;13.90;;;3.97;;
33138;SDS011;19501;50.948;5.316;2022-09-01T01:30:58;9.07;;;3.33;;
33138;SDS011;19501;50.948;5.316;2022-09-01T01:33:34;8.48;;;3.03;;
33138;SDS011;19501;50.948;5.316;2022-09-01T01:36:05;9.60;;;3.13;;
33138;SDS011;19501;50.948;5.316;2022-09-01T01:38:58;9.13;;;3.55;;
33138;SDS011;19501;50.948;5.316;2022-09-01T01:41:27;8.77;;;3.35;;
33138;SDS011;19501;50.948;5.316;2022-09-01T01:43:57;7.93;;;3.00;;
33138;SDS011;19501;50.948;5.316;2022-09-01T01:46:25;10.07;;;3.33;;
33138;SDS011;19501;50.948;5.316;2022-09-01T01:48:51;10.77;;;3.40;;
33138;SDS011;19501;50.948;5.316;2022-09-01T01:51:18;7.90;;;3.42;;
33138;SDS011;19501;50.948;5.316;2022-09-01T01:53:45;7.80;;;3.13;;
33138;SDS011;19501;50.948;5.316;2022-09-01T01:56:12;8.02;;;3.38;;
33138;SDS011;19501;50.948;5.316;2022-09-01T01:58:38;7.28;;;3.42;;
33138;SDS011;19501;50.948;5.316;2022-09-01T02:01:04;9.38;;;3.17;;
33138;SDS011;19501;50.948;5.316;2022-09-01T02:03:31;8.52;;;3.70;;
33138;SDS011;19501;50.948;5.316;2022-09-01T02:06:03;12.30;;;3.88;;
33138;SDS011;19501;50.948;5.316;2022-09-01T02:08:32;6.45;;;3.10;;
33138;SDS011;19501;50.948;5.316;2022-09-01T02:11:00;12.20;;;3.65;;
33138;SDS011;19501;50.948;5.316;2022-09-01T02:13:27;9.43;;;3.17;;
33138;SDS011;19501;50.948;5.316;2022-09-01T02:16:12;12.40;;;3.20;;
33138;SDS011;19501;50.948;5.316;2022-09-01T02:18:40;7.47;;;3.20;;
33138;SDS011;19501;50.948;5.316;2022-09-01T02:21:12;10.30;;;3.40;;
33138;SDS011;19501;50.948;5.316;2022-09-01T02:23:44;10.50;;;3.55;;
33138;SDS011;19501;50.948;5.316;2022-09-01T02:26:15;7.72;;;3.25;;
33138;SDS011;19501;50.948;5.316;2022-09-01T02:28:47;9.20;;;3.50;;
33138;SDS011;19501;50.948;5.316;2022-09-01T02:31:13;10.52;;;3.40;;
33138;SDS011;19501;50.948;5.316;2022-09-01T02:33:39;8.40;;;3.40;;
33138;SDS011;19501;50.948;5.316;2022-09-01T02:36:11;10.95;;;4.10;;
33138;SDS011;19501;50.948;5.316;2022-09-01T02:38:39;10.90;;;4.20;;
33138;SDS011;19501;50.948;5.316;2022-09-01T02:41:10;10.68;;;3.70;;
33138;SDS011;19501;50.948;5.316;2022-09-01T02:43:38;10.50;;;3.85;;
33138;SDS011;19501;50.948;5.316;2022-09-01T02:46:04;10.02;;;3.80;;
33138;SDS011;19501;50.948;5.316;2022-09-01T02:48:38;9.10;;;3.65;;
33138;SDS011;19501;50.948;5.316;2022-09-01T02:51:07;12.70;;;3.65;;
33138;SDS011;19501;50.948;5.316;2022-09-01T02:53:34;10.85;;;3.63;;
33138;SDS011;19501;50.948;5.316;2022-09-01T02:56:03;11.52;;;3.60;;
33138;SDS011;19501;50.948;5.316;2022-09-01T02:58:34;9.45;;;3.50;;
33138;SDS011;19501;50.948;5.316;2022-09-01T03:03:36;11.90;;;3.65;;
33138;SDS011;19501;50.948;5.316;2022-09-01T03:06:01;12.80;;;3.92;;
33138;SDS011;19501;50.948;5.316;2022-09-01T03:08:29;11.30;;;3.78;;
33138;SDS011;19501;50.948;5.316;2022-09-01T03:11:00;9.68;;;3.72;;
33138;SDS011;19501;50.948;5.316;2022-09-01T03:13:27;10.90;;;3.55;;
33138;SDS011;19501;50.948;5.316;2022-09-01T03:15:53;9.80;;;3.90;;
33138;SDS011;19501;50.948;5.316;2022-09-01T03:18:19;10.40;;;3.50;;
33138;SDS011;19501;50.948;5.316;2022-09-01T03:20:45;15.15;;;4.38;;
33138;SDS011;19501;50.948;5.316;2022-09-01T03:23:13;10.20;;;3.90;;
33138;SDS011;19501;50.948;5.316;2022-09-01T03:25:41;10.43;;;3.70;;
33138;SDS011;19501;50.948;5.316;2022-09-01T03:28:08;10.45;;;3.70;;
33138;SDS011;19501;50.948;5.316;2022-09-01T03:30:37;7.75;;;3.60;;
33138;SDS011;19501;50.948;5.316;2022-09-01T03:33:08;14.73;;;3.90;;
33138;SDS011;19501;50.948;5.316;2022-09-01T03:35:34;11.98;;;3.80;;
33138;SDS011;19501;50.948;5.316;2022-09-01T03:37:59;8.50;;;3.80;;
33138;SDS011;19501;50.948;5.316;2022-09-01T03:40:27;10.57;;;4.10;;
33138;SDS011;19501;50.948;5.316;2022-09-01T03:42:59;11.90;;;4.32;;
33138;SDS011;19501;50.948;5.316;2022-09-01T03:45:27;10.63;;;3.80;;
33138;SDS011;19501;50.948;5.316;2022-09-01T03:47:53;12.02;;;4.25;;
33138;SDS011;19501;50.948;5.316;2022-09-01T03:50:21;8.85;;;3.55;;
33138;SDS011;19501;50.948;5.316;2022-09-01T03:52:49;9.50;;;3.72;;
33138;SDS011;19501;50.948;5.316;2022-09-01T03:55:18;10.35;;;3.80;;
33138;SDS011;19501;50.948;5.316;2022-09-01T03:57:54;9.95;;;3.83;;
33138;SDS011;19501;50.948;5.316;2022-09-01T04:00:23;11.63;;;4.05;;
33138;SDS011;19501;50.948;5.316;2022-09-01T04:02:54;13.48;;;4.30;;
33138;SDS011;19501;50.948;5.316;2022-09-01T04:05:23;13.88;;;4.22;;
33138;SDS011;19501;50.948;5.316;2022-09-01T04:07:53;11.20;;;4.18;;
33138;SDS011;19501;50.948;5.316;2022-09-01T04:10:24;12.02;;;3.88;;
33138;SDS011;19501;50.948;5.316;2022-09-01T04:12:50;11.73;;;4.10;;
33138;SDS011;19501;50.948;5.316;2022-09-01T04:15:17;10.88;;;4.30;;
33138;SDS011;19501;50.948;5.316;2022-09-01T04:17:43;10.32;;;3.90;;
33138;SDS011;19501;50.948;5.316;2022-09-01T04:20:27;9.38;;;4.13;;
33138;SDS011;19501;50.948;5.316;2022-09-01T04:22:54;10.48;;;3.90;;
33138;SDS011;19501;50.948;5.316;2022-09-01T04:25:20;8.70;;;3.70;;
33138;SDS011;19501;50.948;5.316;2022-09-01T04:27:49;12.73;;;4.70;;
33138;SDS011;19501;50.948;5.316;2022-09-01T04:30:19;13.20;;;4.45;;
33138;SDS011;19501;50.948;5.316;2022-09-01T04:32:50;12.20;;;4.70;;
33138;SDS011;19501;50.948;5.316;2022-09-01T04:35:20;13.20;;;4.13;;
33138;SDS011;19501;50.948;5.316;2022-09-01T04:37:56;10.98;;;4.57;;
33138;SDS011;19501;50.948;5.316;2022-09-01T04:40:23;10.88;;;4.65;;
33138;SDS011;19501;50.948;5.316;2022-09-01T04:42:49;13.75;;;4.38;;
33138;SDS011;19501;50.948;5.316;2022-09-01T04:45:15;13.40;;;4.72;;
33138;SDS011;19501;50.948;5.316;2022-09-01T04:47:43;11.35;;;4.50;;
33138;SDS011;19501;50.948;5.316;2022-09-01T04:50:10;11.13;;;4.80;;
33138;SDS011;19501;50.948;5.316;2022-09-01T04:52:42;11.82;;;4.60;;
33138;SDS011;19501;50.948;5.316;2022-09-01T04:55:10;10.68;;;4.53;;
33138;SDS011;19501;50.948;5.316;2022-09-01T04:57:44;9.82;;;4.60;;
33138;SDS011;19501;50.948;5.316;2022-09-01T05:00:15;12.80;;;4.63;;
33138;SDS011;19501;50.948;5.316;2022-09-01T05:02:50;12.35;;;4.72;;
33138;SDS011;19501;50.948;5.316;2022-09-01T05:05:18;10.82;;;4.50;;
33138;SDS011;19501;50.948;5.316;2022-09-01T05:07:45;12.15;;;4.55;;
33138;SDS011;19501;50.948;5.316;2022-09-01T05:10:16;12.57;;;4.65;;
33138;SDS011;19501;50.948;5.316;2022-09-01T05:12:46;11.98;;;4.93;;
33138;SDS011;19501;50.948;5.316;2022-09-01T05:15:16;12.00;;;4.85;;
33138;SDS011;19501;50.948;5.316;2022-09-01T05:17:42;13.18;;;4.60;;
33138;SDS011;19501;50.948;5.316;2022-09-01T05:20:08;13.90;;;4.80;;
33138;SDS011;19501;50.948;5.316;2022-09-01T05:22:36;13.25;;;4.55;;
33138;SDS011;19501;50.948;5.316;2022-09-01T05:25:05;13.32;;;4.82;;
33138;SDS011;19501;50.948;5.316;2022-09-01T05:27:42;14.60;;;5.00;;
33138;SDS011;19501;50.948;5.316;2022-09-01T05:30:13;17.67;;;5.75;;
33138;SDS011;19501;50.948;5.316;2022-09-01T05:32:40;12.55;;;5.13;;
33138;SDS011;19501;50.948;5.316;2022-09-01T05:35:07;13.18;;;5.13;;
33138;SDS011;19501;50.948;5.316;2022-09-01T05:37:37;17.58;;;5.28;;
33138;SDS011;19501;50.948;5.316;2022-09-01T05:40:06;13.77;;;5.28;;
33138;SDS011;19501;50.948;5.316;2022-09-01T05:42:33;15.35;;;5.50;;
33138;SDS011;19501;50.948;5.316;2022-09-01T05:45:04;17.48;;;5.75;;
33138;SDS011;19501;50.948;5.316;2022-09-01T05:47:31;12.48;;;5.13;;
33138;SDS011;19501;50.948;5.316;2022-09-01T05:50:00;14.95;;;5.93;;
33138;SDS011;19501;50.948;5.316;2022-09-01T05:52:29;16.23;;;6.07;;
33138;SDS011;19501;50.948;5.316;2022-09-01T05:54:58;14.93;;;5.10;;
33138;SDS011;19501;50.948;5.316;2022-09-01T05:57:24;11.20;;;5.07;;
33138;SDS011;19501;50.948;5.316;2022-09-01T05:59:50;19.42;;;5.90;;
33138;SDS011;19501;50.948;5.316;2022-09-01T06:02:18;19.70;;;5.78;;
33138;SDS011;19501;50.948;5.316;2022-09-01T06:04:45;23.73;;;6.35;;
33138;SDS011;19501;50.948;5.316;2022-09-01T06:07:12;20.83;;;6.20;;
33138;SDS011;19501;50.948;5.316;2022-09-01T06:09:42;16.83;;;6.53;;
33138;SDS011;19501;50.948;5.316;2022-09-01T06:12:11;18.52;;;6.70;;
33138;SDS011;19501;50.948;5.316;2022-09-01T06:14:47;14.57;;;5.82;;
33138;SDS011;19501;50.948;5.316;2022-09-01T06:17:18;16.08;;;6.10;;
33138;SDS011;19501;50.948;5.316;2022-09-01T06:19:47;17.33;;;6.82;;
33138;SDS011;19501;50.948;5.316;2022-09-01T06:22:13;13.02;;;5.95;;
33138;SDS011;19501;50.948;5.316;2022-09-01T06:24:39;16.05;;;6.57;;
33138;SDS011;19501;50.948;5.316;2022-09-01T06:27:06;19.33;;;6.85;;
33138;SDS011;19501;50.948;5.316;2022-09-01T06:29:36;15.63;;;6.57;;
33138;SDS011;19501;50.948;5.316;2022-09-01T06:32:06;14.55;;;6.35;;
33138;SDS011;19501;50.948;5.316;2022-09-01T06:34:34;16.65;;;6.32;;
33138;SDS011;19501;50.948;5.316;2022-09-01T06:37:02;15.00;;;6.57;;
33138;SDS011;19501;50.948;5.316;2022-09-01T06:39:29;17.20;;;7.03;;
33138;SDS011;19501;50.948;5.316;2022-09-01T06:41:55;13.88;;;5.75;;
33138;SDS011;19501;50.948;5.316;2022-09-01T06:44:23;13.68;;;5.95;;
33138;SDS011;19501;50.948;5.316;2022-09-01T06:46:49;14.27;;;6.20;;
33138;SDS011;19501;50.948;5.316;2022-09-01T06:49:16;12.90;;;6.10;;
33138;SDS011;19501;50.948;5.316;2022-09-01T06:51:42;13.73;;;5.90;;
33138;SDS011;19501;50.948;5.316;2022-09-01T06:54:08;17.67;;;6.00;;
33138;SDS011;19501;50.948;5.316;2022-09-01T06:56:38;14.18;;;5.57;;
33138;SDS011;19501;50.948;5.316;2022-09-01T06:59:04;15.65;;;6.28;;
33138;SDS011;19501;50.948;5.316;2022-09-01T07:01:31;14.35;;;5.70;;
33138;SDS011;19501;50.948;5.316;2022-09-01T07:03:58;11.80;;;5.85;;
33138;SDS011;19501;50.948;5.316;2022-09-01T07:06:25;16.77;;;6.38;;
33138;SDS011;19501;50.948;5.316;2022-09-01T07:08:55;16.17;;;5.70;;
33138;SDS011;19501;50.948;5.316;2022-09-01T07:11:28;15.88;;;6.20;;
33138;SDS011;19501;50.948;5.316;2022-09-01T07:13:57;13.70;;;5.88;;
33138;SDS011;19501;50.948;5.316;2022-09-01T07:16:26;12.13;;;5.90;;
33138;SDS011;19501;50.948;5.316;2022-09-01T07:18:54;12.77;;;5.70;;
33138;SDS011;19501;50.948;5.316;2022-09-01T07:21:22;12.68;;;5.80;;
33138;SDS011;19501;50.948;5.316;2022-09-01T07:23:49;11.88;;;5.68;;
33138;SDS011;19501;50.948;5.316;2022-09-01T07:26:16;12.82;;;5.68;;
33138;SDS011;19501;50.948;5.316;2022-09-01T07:28:46;13.20;;;5.60;;
33138;SDS011;19501;50.948;5.316;2022-09-01T07:31:18;12.65;;;5.57;;
33138;SDS011;19501;50.948;5.316;2022-09-01T07:33:46;17.40;;;5.72;;
33138;SDS011;19501;50.948;5.316;2022-09-01T07:36:14;14.20;;;5.60;;
33138;SDS011;19501;50.948;5.316;2022-09-01T07:38:40;14.65;;;5.45;;
33138;SDS011;19501;50.948;5.316;2022-09-01T07:41:07;14.18;;;5.25;;
33138;SDS011;19501;50.948;5.316;2022-09-01T07:43:35;13.93;;;5.25;;
33138;SDS011;19501;50.948;5.316;2022-09-01T07:46:02;14.20;;;5.43;;
33138;SDS011;19501;50.948;5.316;2022-09-01T07:48:29;11.93;;;5.47;;
33138;SDS011;19501;50.948;5.316;2022-09-01T07:50:55;13.77;;;5.00;;
33138;SDS011;19501;50.948;5.316;2022-09-01T07:53:25;14.98;;;5.35;;
33138;SDS011;19501;50.948;5.316;2022-09-01T07:55:56;10.45;;;5.30;;
33138;SDS011;19501;50.948;5.316;2022-09-01T07:58:30;15.43;;;5.07;;
33138;SDS011;19501;50.948;5.316;2022-09-01T08:00:57;14.63;;;5.45;;
33138;SDS011;19501;50.948;5.316;2022-09-01T08:03:27;13.27;;;5.30;;
33138;SDS011;19501;50.948;5.316;2022-09-01T08:05:54;10.30;;;4.70;;
33138;SDS011;19501;50.948;5.316;2022-09-01T08:08:24;13.75;;;5.38;;
33138;SDS011;19501;50.948;5.316;2022-09-01T08:10:50;13.48;;;5.70;;
33138;SDS011;19501;50.948;5.316;2022-09-01T08:13:16;15.35;;;5.70;;
33138;SDS011;19501;50.948;5.316;2022-09-01T08:15:42;11.13;;;5.18;;
33138;SDS011;19501;50.948;5.316;2022-09-01T08:18:08;14.85;;;5.53;;
33138;SDS011;19501;50.948;5.316;2022-09-01T08:20:36;15.75;;;5.50;;
33138;SDS011;19501;50.948;5.316;2022-09-01T08:23:05;13.13;;;4.88;;
33138;SDS011;19501;50.948;5.316;2022-09-01T08:25:32;9.48;;;4.93;;
33138;SDS011;19501;50.948;5.316;2022-09-01T08:28:00;11.40;;;4.65;;
33138;SDS011;19501;50.948;5.316;2022-09-01T08:30:26;13.57;;;5.43;;
33138;SDS011;19501;50.948;5.316;2022-09-01T08:32:52;13.93;;;4.78;;
33138;SDS011;19501;50.948;5.316;2022-09-01T08:35:18;13.82;;;5.57;;
33138;SDS011;19501;50.948;5.316;2022-09-01T08:37:44;9.57;;;5.00;;
33138;SDS011;19501;50.948;5.316;2022-09-01T08:40:12;12.52;;;5.18;;
33138;SDS011;19501;50.948;5.316;2022-09-01T08:43:15;12.70;;;5.13;;
33138;SDS011;19501;50.948;5.316;2022-09-01T08:45:57;15.48;;;5.50;;
33138;SDS011;19501;50.948;5.316;2022-09-01T08:48:36;11.38;;;4.80;;
33138;SDS011;19501;50.948;5.316;2022-09-01T08:54:03;12.13;;;5.15;;
33138;SDS011;19501;50.948;5.316;2022-09-01T08:56:39;12.30;;;4.68;;
33138;SDS011;19501;50.948;5.316;2022-09-01T08:59:05;11.65;;;5.13;;
33138;SDS011;19501;50.948;5.316;2022-09-01T09:01:36;14.05;;;4.85;;
33138;SDS011;19501;50.948;5.316;2022-09-01T09:07:00;13.38;;;5.65;;
33138;SDS011;19501;50.948;5.316;2022-09-01T09:09:40;9.80;;;4.85;;
33138;SDS011;19501;50.948;5.316;2022-09-01T09:12:38;9.98;;;4.43;;
33138;SDS011;19501;50.948;5.316;2022-09-01T09:21:17;12.77;;;4.50;;
33138;SDS011;19501;50.948;5.316;2022-09-01T09:26:39;11.40;;;4.45;;
33138;SDS011;19501;50.948;5.316;2022-09-01T09:29:06;12.82;;;4.43;;
33138;SDS011;19501;50.948;5.316;2022-09-01T09:31:38;11.52;;;3.80;;
33138;SDS011;19501;50.948;5.316;2022-09-01T09:34:32;11.73;;;4.20;;
33138;SDS011;19501;50.948;5.316;2022-09-01T09:37:46;13.10;;;4.05;;
33138;SDS011;19501;50.948;5.316;2022-09-01T09:42:38;9.13;;;4.00;;
33138;SDS011;19501;50.948;5.316;2022-09-01T09:45:20;10.70;;;3.63;;
33138;SDS011;19501;50.948;5.316;2022-09-01T09:48:08;10.18;;;4.05;;
33138;SDS011;19501;50.948;5.316;2022-09-01T09:50:53;10.73;;;4.35;;
33138;SDS011;19501;50.948;5.316;2022-09-01T09:53:26;12.85;;;4.13;;
33138;SDS011;19501;50.948;5.316;2022-09-01T09:58:43;30.73;;;7.43;;
33138;SDS011;19501;50.948;5.316;2022-09-01T10:03:57;8.07;;;4.13;;
33138;SDS011;19501;50.948;5.316;2022-09-01T10:06:32;10.18;;;4.47;;
33138;SDS011;19501;50.948;5.316;2022-09-01T10:09:32;12.27;;;3.90;;
33138;SDS011;19501;50.948;5.316;2022-09-01T10:12:02;11.00;;;3.90;;
33138;SDS011;19501;50.948;5.316;2022-09-01T10:14:44;14.15;;;4.10;;
33138;SDS011;19501;50.948;5.316;2022-09-01T10:17:39;8.30;;;3.70;;
33138;SDS011;19501;50.948;5.316;2022-09-01T10:20:20;7.60;;;3.78;;
33138;SDS011;19501;50.948;5.316;2022-09-01T10:22:49;8.68;;;3.78;;
33138;SDS011;19501;50.948;5.316;2022-09-01T10:25:21;9.93;;;4.35;;
33138;SDS011;19501;50.948;5.316;2022-09-01T10:27:57;6.40;;;3.53;;
33138;SDS011;19501;50.948;5.316;2022-09-01T10:30:29;6.93;;;3.60;;
33138;SDS011;19501;50.948;5.316;2022-09-01T10:32:59;9.18;;;3.92;;
33138;SDS011;19501;50.948;5.316;2022-09-01T10:35:35;6.57;;;3.75;;
33138;SDS011;19501;50.948;5.316;2022-09-01T10:38:05;9.52;;;4.05;;
33138;SDS011;19501;50.948;5.316;2022-09-01T10:40:37;8.13;;;4.03;;
33138;SDS011;19501;50.948;5.316;2022-09-01T10:43:28;8.38;;;4.22;;
33138;SDS011;19501;50.948;5.316;2022-09-01T10:48:42;6.28;;;3.60;;
33138;SDS011;19501;50.948;5.316;2022-09-01T10:56:14;12.18;;;3.50;;
33138;SDS011;19501;50.948;5.316;2022-09-01T11:04:09;7.95;;;3.38;;
33138;SDS011;19501;50.948;5.316;2022-09-01T11:14:52;7.38;;;3.30;;
33138;SDS011;19501;50.948;5.316;2022-09-01T11:17:20;6.82;;;2.80;;
33138;SDS011;19501;50.948;5.316;2022-09-01T11:20:07;5.35;;;2.80;;
33138;SDS011;19501;50.948;5.316;2022-09-01T11:27:57;12.98;;;3.63;;
33138;SDS011;19501;50.948;5.316;2022-09-01T11:35:59;5.35;;;2.85;;
33138;SDS011;19501;50.948;5.316;2022-09-01T11:38:26;5.75;;;2.70;;
33138;SDS011;19501;50.948;5.316;2022-09-01T11:40:56;6.93;;;2.85;;
33138;SDS011;19501;50.948;5.316;2022-09-01T11:43:22;9.05;;;3.00;;
33138;SDS011;19501;50.948;5.316;2022-09-01T11:48:46;6.70;;;2.97;;
33138;SDS011;19501;50.948;5.316;2022-09-01T11:51:13;6.35;;;2.80;;
33138;SDS011;19501;50.948;5.316;2022-09-01T11:53:41;5.30;;;3.00;;
33138;SDS011;19501;50.948;5.316;2022-09-01T11:56:18;7.95;;;3.10;;
33138;SDS011;19501;50.948;5.316;2022-09-01T11:58:49;6.65;;;2.92;;
33138;SDS011;19501;50.948;5.316;2022-09-01T12:01:20;6.97;;;3.13;;
33138;SDS011;19501;50.948;5.316;2022-09-01T12:03:55;8.90;;;3.20;;
33138;SDS011;19501;50.948;5.316;2022-09-01T12:06:26;6.35;;;3.05;;
33138;SDS011;19501;50.948;5.316;2022-09-01T12:08:59;6.97;;;3.08;;
33138;SDS011;19501;50.948;5.316;2022-09-01T12:11:29;8.13;;;3.33;;
33138;SDS011;19501;50.948;5.316;2022-09-01T12:13:58;7.20;;;2.90;;
33138;SDS011;19501;50.948;5.316;2022-09-01T12:16:26;5.30;;;2.90;;
33138;SDS011;19501;50.948;5.316;2022-09-01T12:18:54;7.63;;;3.20;;
33138;SDS011;19501;50.948;5.316;2022-09-01T12:23:54;7.82;;;2.85;;
33138;SDS011;19501;50.948;5.316;2022-09-01T12:26:36;5.82;;;3.10;;
33138;SDS011;19501;50.948;5.316;2022-09-01T12:29:03;8.70;;;3.03;;
33138;SDS011;19501;50.948;5.316;2022-09-01T12:31:31;8.48;;;3.10;;
33138;SDS011;19501;50.948;5.316;2022-09-01T12:33:57;12.05;;;4.00;;
33138;SDS011;19501;50.948;5.316;2022-09-01T12:36:27;6.60;;;3.10;;
33138;SDS011;19501;50.948;5.316;2022-09-01T12:41:43;9.50;;;2.95;;
33138;SDS011;19501;50.948;5.316;2022-09-01T12:45:10;9.05;;;3.20;;
33138;SDS011;19501;50.948;5.316;2022-09-01T12:47:12;8.70;;;3.05;;
33138;SDS011;19501;50.948;5.316;2022-09-01T12:50:31;7.05;;;2.97;;
33138;SDS011;19501;50.948;5.316;2022-09-01T12:52:57;6.82;;;2.90;;
33138;SDS011;19501;50.948;5.316;2022-09-01T12:55:27;7.20;;;3.10;;
33138;SDS011;19501;50.948;5.316;2022-09-01T12:57:59;4.85;;;2.83;;
33138;SDS011;19501;50.948;5.316;2022-09-01T13:00:27;8.98;;;2.97;;
33138;SDS011;19501;50.948;5.316;2022-09-01T13:05:35;7.22;;;2.90;;
33138;SDS011;19501;50.948;5.316;2022-09-01T13:08:07;6.07;;;3.00;;
33138;SDS011;19501;50.948;5.316;2022-09-01T13:10:39;4.70;;;2.85;;
33138;SDS011;19501;50.948;5.316;2022-09-01T13:13:10;7.85;;;3.30;;
33138;SDS011;19501;50.948;5.316;2022-09-01T13:15:38;8.13;;;3.08;;
33138;SDS011;19501;50.948;5.316;2022-09-01T13:18:06;8.18;;;3.33;;
33138;SDS011;19501;50.948;5.316;2022-09-01T13:20:33;10.73;;;2.92;;
33138;SDS011;19501;50.948;5.316;2022-09-01T13:22:59;8.10;;;3.00;;
33138;SDS011;19501;50.948;5.316;2022-09-01T13:25:26;9.45;;;3.47;;
33138;SDS011;19501;50.948;5.316;2022-09-01T13:27:52;6.68;;;3.05;;
33138;SDS011;19501;50.948;5.316;2022-09-01T13:30:19;7.63;;;3.25;;
33138;SDS011;19501;50.948;5.316;2022-09-01T13:32:48;6.93;;;2.95;;
33138;SDS011;19501;50.948;5.316;2022-09-01T13:35:17;7.50;;;3.10;;
33138;SDS011;19501;50.948;5.316;2022-09-01T13:37:44;9.30;;;3.17;;
33138;SDS011;19501;50.948;5.316;2022-09-01T13:40:11;5.55;;;3.03;;
33138;SDS011;19501;50.948;5.316;2022-09-01T13:42:43;8.38;;;3.00;;
33138;SDS011;19501;50.948;5.316;2022-09-01T13:45:10;6.00;;;3.00;;
33138;SDS011;19501;50.948;5.316;2022-09-01T13:47:40;9.00;;;3.10;;
33138;SDS011;19501;50.948;5.316;2022-09-01T13:50:06;9.02;;;3.28;;
33138;SDS011;19501;50.948;5.316;2022-09-01T13:52:34;6.43;;;2.95;;
33138;SDS011;19501;50.948;5.316;2022-09-01T13:55:00;7.07;;;3.28;;
33138;SDS011;19501;50.948;5.316;2022-09-01T13:57:26;10.65;;;3.20;;
33138;SDS011;19501;50.948;5.316;2022-09-01T13:59:51;6.65;;;3.00;;
33138;SDS011;19501;50.948;5.316;2022-09-01T14:02:18;10.20;;;3.00;;
33138;SDS011;19501;50.948;5.316;2022-09-01T14:04:44;5.75;;;3.13;;
33138;SDS011;19501;50.948;5.316;2022-09-01T14:07:09;12.57;;;3.10;;
33138;SDS011;19501;50.948;5.316;2022-09-01T14:09:35;11.63;;;3.08;;
33138;SDS011;19501;50.948;5.316;2022-09-01T14:12:01;15.00;;;3.20;;
33138;SDS011;19501;50.948;5.316;2022-09-01T14:14:26;7.63;;;3.40;;
33138;SDS011;19501;50.948;5.316;2022-09-01T14:16:53;7.28;;;3.42;;
33138;SDS011;19501;50.948;5.316;2022-09-01T14:19:19;8.60;;;3.30;;
33138;SDS011;19501;50.948;5.316;2022-09-01T14:21:45;9.73;;;3.50;;
33138;SDS011;19501;50.948;5.316;2022-09-01T14:24:11;6.57;;;3.30;;
33138;SDS011;19501;50.948;5.316;2022-09-01T14:26:39;8.32;;;3.33;;
33138;SDS011;19501;50.948;5.316;2022-09-01T14:29:05;11.32;;;3.50;;
33138;SDS011;19501;50.948;5.316;2022-09-01T14:31:31;9.27;;;3.53;;
33138;SDS011;19501;50.948;5.316;2022-09-01T14:34:00;5.57;;;3.00;;
33138;SDS011;19501;50.948;5.316;2022-09-01T14:36:25;5.15;;;3.40;;
33138;SDS011;19501;50.948;5.316;2022-09-01T14:38:52;13.20;;;3.65;;
33138;SDS011;19501;50.948;5.316;2022-09-01T14:41:18;7.70;;;3.25;;
33138;SDS011;19501;50.948;5.316;2022-09-01T14:43:47;8.35;;;3.30;;
33138;SDS011;19501;50.948;5.316;2022-09-01T14:46:14;7.90;;;3.40;;
33138;SDS011;19501;50.948;5.316;2022-09-01T14:48:40;6.07;;;2.97;;
33138;SDS011;19501;50.948;5.316;2022-09-01T14:51:07;4.63;;;3.03;;
33138;SDS011;19501;50.948;5.316;2022-09-01T14:53:33;8.15;;;3.63;;
33138;SDS011;19501;50.948;5.316;2022-09-01T14:56:00;5.72;;;3.42;;
33138;SDS011;19501;50.948;5.316;2022-09-01T14:58:27;5.93;;;3.50;;
33138;SDS011;19501;50.948;5.316;2022-09-01T15:00:54;4.82;;;3.30;;
33138;SDS011;19501;50.948;5.316;2022-09-01T15:03:23;6.03;;;3.13;;
33138;SDS011;19501;50.948;5.316;2022-09-01T15:05:50;9.68;;;3.97;;
33138;SDS011;19501;50.948;5.316;2022-09-01T15:08:18;9.43;;;3.70;;
33138;SDS011;19501;50.948;5.316;2022-09-01T15:10:45;7.32;;;3.45;;
33138;SDS011;19501;50.948;5.316;2022-09-01T15:13:10;11.70;;;3.63;;
33138;SDS011;19501;50.948;5.316;2022-09-01T15:15:37;7.40;;;3.35;;
33138;SDS011;19501;50.948;5.316;2022-09-01T15:18:04;8.82;;;3.67;;
33138;SDS011;19501;50.948;5.316;2022-09-01T15:20:30;10.52;;;4.10;;
33138;SDS011;19501;50.948;5.316;2022-09-01T15:23:15;8.55;;;3.75;;
33138;SDS011;19501;50.948;5.316;2022-09-01T15:25:44;12.13;;;4.00;;
33138;SDS011;19501;50.948;5.316;2022-09-01T15:28:11;7.32;;;3.70;;
33138;SDS011;19501;50.948;5.316;2022-09-01T15:30:37;7.05;;;4.13;;
33138;SDS011;19501;50.948;5.316;2022-09-01T15:33:03;15.98;;;7.13;;
33138;SDS011;19501;50.948;5.316;2022-09-01T15:35:31;6.88;;;3.88;;
33138;SDS011;19501;50.948;5.316;2022-09-01T15:37:56;6.97;;;3.53;;
33138;SDS011;19501;50.948;5.316;2022-09-01T15:40:22;18.58;;;4.07;;
33138;SDS011;19501;50.948;5.316;2022-09-01T15:42:49;8.25;;;3.80;;
33138;SDS011;19501;50.948;5.316;2022-09-01T15:45:19;7.70;;;3.80;;
33138;SDS011;19501;50.948;5.316;2022-09-01T15:47:46;10.60;;;4.20;;
33138;SDS011;19501;50.948;5.316;2022-09-01T15:50:16;8.38;;;4.18;;
33138;SDS011;19501;50.948;5.316;2022-09-01T15:53:06;7.88;;;4.30;;
33138;SDS011;19501;50.948;5.316;2022-09-01T15:58:27;10.25;;;4.63;;
33138;SDS011;19501;50.948;5.316;2022-09-01T16:00:53;9.10;;;4.38;;
33138;SDS011;19501;50.948;5.316;2022-09-01T16:03:20;10.25;;;4.10;;
33138;SDS011;19501;50.948;5.316;2022-09-01T16:05:48;11.60;;;4.28;;
33138;SDS011;19501;50.948;5.316;2022-09-01T16:08:13;7.60;;;3.70;;
33138;SDS011;19501;50.948;5.316;2022-09-01T16:10:39;10.52;;;4.10;;